Time;durP1;ratioP1;P1;durP2;ratioP2;P2;SDS_P1;SDS_P2;PMS_P1;PMS_P2;Temp;Humidity;BMP_temperature;BMP_pressure;BME280_temperature;BME280_humidity;BME280_pressure;Samples;Min_cycle;Max_cycle;Signal;HPM_P1;HPM_P2
2021/07/14 00:00:19;;;;;;;36.85;16.92;;;;;;;16.92;87.84;101290.13;4860283;29;20029;-87
2021/07/14 00:02:47;;;;;;;44.78;18.75;;;;;;;16.89;88.05;101290.38;4858894;29;20045;-88
2021/07/14 00:05:14;;;;;;;42.22;19.33;;;;;;;16.88;88.21;101300.19;4843615;29;20045;-88
2021/07/14 00:07:39;;;;;;;45.65;19.23;;;;;;;16.83;88.47;101301.50;4875464;29;20041;-88
2021/07/14 00:10:09;;;;;;;50.70;20.40;;;;;;;16.84;88.69;101293.38;4847715;29;20029;-88
2021/07/14 00:12:43;;;;;;;51.30;20.88;;;;;;;16.85;88.71;101294.25;4862874;29;20029;-89
2021/07/14 00:23:26;;;;;;;56.72;23.77;;;;;;;17.08;87.48;101284.56;4865592;29;20041;-88
2021/07/14 00:25:52;;;;;;;56.88;24.48;;;;;;;17.10;87.50;101276.44;4862373;29;20040;-88
2021/07/14 00:28:18;;;;;;;52.83;23.17;;;;;;;17.16;87.13;101274.13;4879111;29;20029;-89
2021/07/14 00:30:49;;;;;;;52.17;23.80;;;;;;;17.17;86.96;101281.22;4879083;29;20048;-89
2021/07/14 00:33:15;;;;;;;58.30;23.23;;;;;;;17.29;86.30;101298.13;4904390;23;20131;-89
2021/07/14 00:35:40;;;;;;;58.55;23.08;;;;;;;17.25;86.62;101302.03;4894382;29;20036;-88
2021/07/14 00:38:05;;;;;;;48.20;22.58;;;;;;;17.27;86.69;101300.06;4907755;29;20060;-89
2021/07/14 00:40:31;;;;;;;56.05;24.05;;;;;;;17.26;86.74;101301.03;4921107;29;20032;-88
2021/07/14 00:42:56;;;;;;;66.75;24.75;;;;;;;17.21;87.22;101300.53;4922918;29;20024;-89
2021/07/14 00:45:22;;;;;;;59.10;23.08;;;;;;;17.14;87.49;101308.16;4925627;29;20032;-88
2021/07/14 00:47:49;;;;;;;57.35;23.38;;;;;;;17.28;87.13;101312.47;4925100;29;20034;-88
2021/07/14 00:50:15;;;;;;;59.58;23.67;;;;;;;17.27;87.49;101304.56;4888228;29;20035;-86
2021/07/14 00:52:41;;;;;;;63.28;25.13;;;;;;;17.21;87.36;101302.38;4903101;29;20497;-88
2021/07/14 00:55:06;;;;;;;54.95;22.25;;;;;;;17.18;87.66;101301.63;4902819;29;20051;-88
2021/07/14 00:57:32;;;;;;;58.00;24.17;;;;;;;17.19;87.60;101300.63;4902507;29;20115;-87
2021/07/14 00:59:57;;;;;;;51.13;23.58;;;;;;;17.16;86.91;101300.03;4886882;29;20036;-88
2021/07/14 01:02:25;;;;;;;54.17;23.77;;;;;;;17.22;86.84;101299.56;4920629;29;20104;-88
2021/07/14 01:05:01;;;;;;;54.55;22.98;;;;;;;17.17;87.30;101291.03;4889845;29;20040;-87
2021/07/14 01:07:31;;;;;;;59.22;23.63;;;;;;;17.16;87.22;101302.69;4906390;29;20060;-87
2021/07/14 01:10:06;;;;;;;50.53;22.88;;;;;;;17.04;87.26;101307.94;4890912;29;20048;-88
2021/07/14 01:12:56;;;;;;;53.47;24.30;;;;;;;16.98;87.79;101303.06;4923661;29;20032;-88
2021/07/14 01:15:22;;;;;;;53.55;24.33;;;;;;;17.03;87.59;101310.72;4908100;29;20028;-89
2021/07/14 01:17:53;;;;;;;49.90;24.38;;;;;;;16.98;87.35;101310.19;4906114;29;20079;-88
2021/07/14 01:20:36;;;;;;;51.05;24.48;;;;;;;16.99;87.31;101312.75;4904371;29;20078;-88
2021/07/14 01:23:09;;;;;;;44.90;23.38;;;;;;;17.04;87.22;101301.75;4888404;29;20048;-89
2021/07/14 01:25:56;;;;;;;47.40;22.83;;;;;;;17.03;87.15;101310.72;4920595;29;20040;-88
2021/07/14 01:28:46;;;;;;;45.55;23.17;;;;;;;16.96;87.50;101318.31;4921170;29;20043;-88
2021/07/14 01:31:13;;;;;;;47.53;22.42;;;;;;;17.02;86.83;101317.03;4863414;29;20057;-89
2021/07/14 01:33:40;;;;;;;53.22;22.80;;;;;;;16.82;87.67;101305.97;4847115;29;20544;-89
2021/07/14 01:36:11;;;;;;;44.35;22.55;;;;;;;16.91;87.15;101304.47;4863702;29;20050;-88
2021/07/14 01:38:36;;;;;;;44.35;22.17;;;;;;;16.95;86.88;101305.94;4848045;29;20036;-88
2021/07/14 01:41:02;;;;;;;40.72;21.20;;;;;;;16.85;87.00;101297.75;4847614;29;20045;-88
2021/07/14 01:43:27;;;;;;;38.97;21.35;;;;;;;16.80;87.06;101303.41;4862626;29;20089;-88
2021/07/14 01:45:56;;;;;;;41.42;22.33;;;;;;;16.81;87.20;101299.81;4863574;29;20046;-88
2021/07/14 01:48:22;;;;;;;48.30;21.90;;;;;;;16.85;87.00;101299.56;4865383;29;20040;-87
2021/07/14 01:50:47;;;;;;;40.20;22.05;;;;;;;16.91;86.89;101301.81;4832653;29;20049;-87
2021/07/14 01:53:13;;;;;;;41.63;22.80;;;;;;;16.89;86.98;101303.72;4851923;29;20057;-88
2021/07/14 01:55:39;;;;;;;44.22;22.35;;;;;;;16.88;86.72;101297.50;4869084;29;20082;-87
2021/07/14 01:58:06;;;;;;;46.33;23.98;;;;;;;16.91;86.92;101305.31;4869572;29;20022;-88
2021/07/14 02:00:31;;;;;;;49.85;25.17;;;;;;;16.94;86.77;101306.91;4869624;29;20038;-88
2021/07/14 02:06:06;;;;;;;57.47;26.38;;;;;;;16.71;87.76;101301.41;4908495;29;20044;-89
2021/07/14 02:08:31;;;;;;;54.17;25.05;;;;;;;16.76;87.57;101312.63;4925944;29;20028;-89
2021/07/14 02:10:57;;;;;;;56.08;25.55;;;;;;;16.81;87.53;101310.47;4894715;29;20087;-87
2021/07/14 02:13:23;;;;;;;57.20;25.60;;;;;;;16.75;87.75;101310.94;4925720;29;20031;-88
2021/07/14 02:15:53;;;;;;;56.20;26.63;;;;;;;16.71;87.90;101305.91;4942348;29;20060;-88
2021/07/14 02:18:21;;;;;;;60.67;26.42;;;;;;;16.81;87.42;101309.63;4910202;29;20028;-88
2021/07/14 02:20:46;;;;;;;56.17;26.80;;;;;;;16.89;87.33;101304.59;4910812;29;20024;-88
2021/07/14 02:23:12;;;;;;;60.38;27.55;;;;;;;16.91;87.07;101304.47;4910176;29;20079;-88
2021/07/14 02:25:37;;;;;;;57.15;27.60;;;;;;;16.78;87.70;101292.00;4942163;29;20044;-88
2021/07/14 02:28:03;;;;;;;61.83;27.85;;;;;;;16.77;87.61;101295.63;4941968;29;20023;-88
2021/07/14 02:30:29;;;;;;;54.60;26.30;;;;;;;16.79;87.60;101292.84;4894497;29;20056;-87
2021/07/14 02:32:55;;;;;;;56.05;25.48;;;;;;;16.92;87.15;101300.81;4941854;29;20040;-88
2021/07/14 02:35:20;;;;;;;48.60;24.48;;;;;;;16.76;87.89;101296.59;4941771;29;20103;-87
2021/07/14 02:37:52;;;;;;;51.53;26.50;;;;;;;16.67;88.21;101292.78;4925464;29;20034;-86
2021/07/14 02:40:32;;;;;;;52.85;25.58;;;;;;;16.67;88.53;101286.59;4925532;29;20044;-87
2021/07/14 02:43:03;;;;;;;57.55;27.08;;;;;;;16.76;88.06;101288.59;4909977;29;20085;-86
2021/07/14 02:45:29;;;;;;;58.70;27.02;;;;;;;16.66;88.39;101285.72;4925907;29;20039;-85
2021/07/14 02:47:54;;;;;;;59.15;26.77;;;;;;;16.78;87.94;101285.81;4941443;29;20009;-85
2021/07/14 02:50:21;;;;;;;60.05;26.95;;;;;;;16.80;87.62;101276.72;4908953;29;20051;-85
2021/07/14 02:52:48;;;;;;;58.95;26.85;;;;;;;16.70;88.10;101273.00;4925267;29;20025;-86
2021/07/14 02:55:23;;;;;;;50.58;25.10;;;;;;;16.67;88.21;101273.22;4909211;29;20047;-86
2021/07/14 02:57:48;;;;;;;48.85;23.85;;;;;;;16.67;88.48;101273.22;4924972;29;20035;-86
2021/07/14 03:00:14;;;;;;;51.13;24.13;;;;;;;16.62;88.42;101276.25;4883587;29;20068;-86
2021/07/14 03:02:40;;;;;;;45.80;23.95;;;;;;;16.69;88.20;101274.81;4938228;29;20075;-85
2021/07/14 03:05:06;;;;;;;48.05;23.00;;;;;;;16.63;88.48;101275.25;4923109;29;20055;-87
2021/07/14 03:07:31;;;;;;;49.25;24.58;;;;;;;16.71;88.18;101269.38;4928754;29;20109;-86
2021/07/14 03:09:57;;;;;;;46.28;24.42;;;;;;;16.66;88.45;101266.19;4919195;29;20206;-88
2021/07/14 03:12:23;;;;;;;43.90;22.80;;;;;;;16.65;88.45;101269.81;4921314;29;20032;-88
2021/07/14 03:14:53;;;;;;;53.30;24.63;;;;;;;16.76;88.21;101266.38;4911038;29;20039;-87
2021/07/14 03:17:20;;;;;;;48.35;24.30;;;;;;;16.58;88.71;101263.22;4901363;29;20052;-87
2021/07/14 03:19:46;;;;;;;49.53;25.52;;;;;;;16.61;88.65;101268.34;4886272;29;20038;-87
2021/07/14 03:22:11;;;;;;;56.90;24.95;;;;;;;16.67;88.26;101270.56;4906398;29;20032;-88
2021/07/14 03:24:37;;;;;;;52.70;26.02;;;;;;;16.56;88.54;101271.34;4896636;29;20471;-87
2021/07/14 03:27:06;;;;;;;54.92;27.02;;;;;;;16.59;88.88;101268.44;4928584;29;20031;-86
2021/07/14 03:29:32;;;;;;;55.63;26.42;;;;;;;16.63;88.37;101274.44;4929102;29;20527;-87
2021/07/14 03:31:58;;;;;;;51.78;26.17;;;;;;;16.63;88.14;101279.78;4917817;29;20035;-86
2021/07/14 03:34:23;;;;;;;57.67;28.77;;;;;;;16.72;88.04;101279.09;4888856;29;20127;-87
2021/07/14 03:36:49;;;;;;;63.22;29.50;;;;;;;16.66;88.07;101282.22;4918403;29;20036;-88
2021/07/14 03:39:15;;;;;;;65.53;31.60;;;;;;;16.62;88.04;101278.03;4885731;29;20047;-88
2021/07/14 03:41:41;;;;;;;66.72;30.80;;;;;;;16.73;87.41;101275.47;4917227;29;20028;-86
2021/07/14 03:44:09;;;;;;;77.30;33.72;;;;;;;16.67;87.83;101275.91;4884293;29;20092;-86
2021/07/14 03:46:34;;;;;;;74.28;33.45;;;;;;;16.56;88.09;101266.88;4884524;29;20024;-86
2021/07/14 03:49:00;;;;;;;72.28;34.75;;;;;;;16.49;88.60;101267.41;4868972;29;20036;-86
2021/07/14 03:51:26;;;;;;;75.30;33.33;;;;;;;16.48;88.39;101266.56;4884393;29;20024;-85
2021/07/14 03:53:53;;;;;;;73.85;33.92;;;;;;;16.45;88.58;101269.44;4884893;29;20036;-86
2021/07/14 03:56:23;;;;;;;71.38;34.25;;;;;;;16.37;88.64;101266.44;4917126;29;20123;-85
2021/07/14 03:58:49;;;;;;;65.97;32.78;;;;;;;16.46;88.32;101278.31;4916818;29;20487;-86
2021/07/14 04:01:17;;;;;;;77.20;35.72;;;;;;;16.46;88.12;101268.47;4900764;29;20229;-84
2021/07/14 04:03:42;;;;;;;71.35;32.30;;;;;;;16.43;88.09;101266.03;4906771;29;20060;-84
2021/07/14 04:06:08;;;;;;;65.05;32.20;;;;;;;16.37;88.18;101263.78;4894891;29;20047;-84
2021/07/14 04:08:38;;;;;;;68.88;32.22;;;;;;;16.32;88.16;101253.44;4900565;29;20028;-85
2021/07/14 04:11:05;;;;;;;64.53;32.92;;;;;;;16.40;88.47;101266.22;4913451;29;20031;-85
2021/07/14 04:13:30;;;;;;;71.35;31.33;;;;;;;16.48;88.25;101266.56;4926070;29;20051;-84
2021/07/14 04:15:56;;;;;;;65.47;30.30;;;;;;;16.56;88.18;101255.31;4903401;29;20379;-85
2021/07/14 04:18:22;;;;;;;63.45;30.73;;;;;;;16.50;88.35;101256.63;4920818;29;20371;-85
2021/07/14 04:20:48;;;;;;;64.22;29.30;;;;;;;16.53;88.38;101250.22;4903654;29;20032;-84
2021/07/14 04:23:13;;;;;;;65.00;29.77;;;;;;;16.50;88.39;101240.59;4920388;29;20027;-84
2021/07/14 04:25:39;;;;;;;61.63;27.83;;;;;;;16.52;88.46;101238.66;4920287;29;20032;-85
2021/07/14 04:28:06;;;;;;;62.55;28.20;;;;;;;16.53;88.45;101239.53;4920497;29;20040;-85
2021/07/14 04:30:32;;;;;;;47.60;25.15;;;;;;;16.46;88.47;101236.44;4920061;29;20036;-85
2021/07/14 04:32:57;;;;;;;52.22;25.83;;;;;;;16.50;88.50;101232.59;4935848;23;20024;-82
2021/07/14 04:35:23;;;;;;;52.58;25.33;;;;;;;16.49;88.09;101238.88;4887826;29;20399;-82
2021/07/14 04:37:49;;;;;;;49.13;24.05;;;;;;;16.50;88.25;101237.94;4921324;29;20036;-83
2021/07/14 04:40:15;;;;;;;41.10;23.30;;;;;;;16.58;87.91;101237.38;4905461;29;20483;-82
2021/07/14 04:42:40;;;;;;;45.83;23.60;;;;;;;16.49;87.83;101227.38;4921137;29;20080;-81
2021/07/14 04:45:06;;;;;;;45.67;24.80;;;;;;;16.62;87.75;101244.19;4903724;29;20471;-83
2021/07/14 04:47:32;;;;;;;42.78;23.40;;;;;;;16.60;87.77;101242.63;4921689;29;20066;-81
2021/07/14 04:49:58;;;;;;;43.42;23.65;;;;;;;16.53;87.65;101234.19;4921815;29;20479;-82
2021/07/14 04:52:23;;;;;;;44.78;23.42;;;;;;;16.57;87.44;101243.66;4921742;29;20036;-82
2021/07/14 04:54:49;;;;;;;44.17;24.25;;;;;;;16.44;88.27;101243.72;4920550;29;20031;-81
2021/07/14 04:57:14;;;;;;;46.10;24.52;;;;;;;16.52;88.00;101241.34;4919494;29;20028;-82
2021/07/14 04:59:39;;;;;;;52.15;26.30;;;;;;;16.47;88.21;101248.84;4920783;29;20028;-82
2021/07/14 05:02:05;;;;;;;58.47;26.73;;;;;;;16.50;88.15;101245.09;4920479;29;20383;-82
2021/07/14 05:04:34;;;;;;;57.17;27.70;;;;;;;16.44;88.44;101251.72;4922635;29;20464;-82
2021/07/14 05:07:00;;;;;;;57.65;28.45;;;;;;;16.43;88.29;101253.53;4921036;29;20107;-83
2021/07/14 05:09:25;;;;;;;65.07;30.45;;;;;;;16.42;88.38;101267.84;4920050;29;20079;-81
2021/07/14 05:11:51;;;;;;;65.22;30.02;;;;;;;16.44;88.20;101262.41;4919655;29;20035;-81
2021/07/14 05:14:16;;;;;;;66.30;30.17;;;;;;;16.47;88.05;101258.66;4919500;29;20028;-82
2021/07/14 05:16:41;;;;;;;61.38;29.48;;;;;;;16.40;88.15;101263.56;4919286;29;20038;-82
2021/07/14 05:19:08;;;;;;;65.43;30.48;;;;;;;16.50;87.82;101259.28;4919525;29;20032;-81
2021/07/14 05:21:33;;;;;;;59.55;30.85;;;;;;;16.61;87.50;101263.00;4919613;29;20032;-83
2021/07/14 05:23:59;;;;;;;60.30;29.63;;;;;;;16.61;87.16;101266.53;4920051;29;20043;-81
2021/07/14 05:26:24;;;;;;;52.30;27.50;;;;;;;16.65;87.02;101275.16;4920012;29;20039;-80
2021/07/14 05:28:50;;;;;;;53.33;27.95;;;;;;;16.77;86.62;101273.44;4919999;29;20021;-81
2021/07/14 05:31:15;;;;;;;55.20;27.00;;;;;;;16.64;86.66;101276.13;4919419;29;20038;-81
2021/07/14 05:33:42;;;;;;;49.45;27.27;;;;;;;16.72;86.48;101278.25;4919101;29;20048;-81
2021/07/14 05:36:08;;;;;;;48.67;27.20;;;;;;;16.75;86.11;101280.69;4919334;29;20115;-80
2021/07/14 05:38:33;;;;;;;49.55;27.25;;;;;;;16.71;86.05;101276.53;4917926;29;20066;-81
2021/07/14 05:40:58;;;;;;;46.55;25.52;;;;;;;16.67;86.35;101281.25;4919241;29;20032;-82
2021/07/14 05:43:24;;;;;;;42.88;25.33;;;;;;;16.69;86.15;101292.69;4902666;29;20035;-82
2021/07/14 05:45:49;;;;;;;45.65;25.20;;;;;;;16.73;85.95;101301.31;4919978;29;20024;-82
2021/07/14 05:48:15;;;;;;;49.03;26.58;;;;;;;16.70;86.09;101294.38;4919307;29;20028;-81
2021/07/14 05:50:40;;;;;;;49.03;26.35;;;;;;;16.82;86.31;101289.94;4919696;29;20104;-83
2021/07/14 05:53:06;;;;;;;46.05;26.70;;;;;;;16.87;85.93;101292.28;4919569;29;20032;-81
2021/07/14 05:55:32;;;;;;;40.85;23.58;;;;;;;16.88;85.18;101299.34;4918992;29;20047;-81
2021/07/14 05:57:57;;;;;;;39.90;24.15;;;;;;;16.91;85.21;101305.31;4918943;29;20028;-81
2021/07/14 06:00:23;;;;;;;42.58;24.92;;;;;;;17.05;84.66;101306.13;4918954;29;20050;-81
2021/07/14 06:02:48;;;;;;;37.65;23.42;;;;;;;16.97;84.97;101304.03;4919096;29;20032;-82
2021/07/14 06:05:13;;;;;;;37.50;23.50;;;;;;;16.96;84.98;101299.63;4918984;29;20095;-80
2021/07/14 06:07:40;;;;;;;42.47;23.83;;;;;;;17.12;84.69;101302.06;4918638;29;20028;-81
2021/07/14 06:10:06;;;;;;;36.35;21.83;;;;;;;17.05;84.57;101312.31;4902150;29;20388;-81
2021/07/14 06:12:31;;;;;;;39.13;23.15;;;;;;;17.06;84.48;101305.16;4918639;29;20035;-81
2021/07/14 06:14:57;;;;;;;37.53;23.95;;;;;;;17.15;84.60;101306.31;4911798;29;20040;-79
2021/07/14 06:17:22;;;;;;;39.30;21.35;;;;;;;17.03;84.46;101306.25;4925323;29;20038;-80
2021/07/14 06:19:47;;;;;;;40.22;23.02;;;;;;;17.01;84.57;101299.28;4937323;29;20032;-81
2021/07/14 06:22:13;;;;;;;43.47;24.00;;;;;;;17.05;84.92;101312.31;4937513;29;20046;-81
2021/07/14 06:24:39;;;;;;;45.50;25.77;;;;;;;17.03;84.85;101313.41;4937634;29;20047;-81
2021/07/14 06:27:05;;;;;;;39.47;24.42;;;;;;;17.06;84.31;101314.03;4937374;29;20048;-80
2021/07/14 06:29:30;;;;;;;36.15;23.00;;;;;;;17.20;84.22;101293.47;4919292;29;20542;-79
2021/07/14 06:31:56;;;;;;;40.90;22.88;;;;;;;17.22;84.20;101294.22;4920253;29;20043;-81
2021/07/14 06:34:21;;;;;;;36.60;21.85;;;;;;;17.11;84.45;101297.69;4937048;29;20054;-80
2021/07/14 06:36:47;;;;;;;38.97;23.25;;;;;;;17.18;84.32;101292.72;4937076;29;20028;-81
2021/07/14 06:39:12;;;;;;;35.13;22.55;;;;;;;17.23;84.39;101292.38;4936924;29;20034;-83
2021/07/14 06:41:38;;;;;;;40.00;24.50;;;;;;;17.38;84.37;101299.28;4937474;29;20019;-83
2021/07/14 06:44:05;;;;;;;34.53;21.92;;;;;;;17.45;83.81;101294.31;4937111;29;20032;-84
2021/07/14 06:46:31;;;;;;;40.88;22.83;;;;;;;17.35;84.14;101290.63;4937601;29;20039;-82
2021/07/14 06:48:57;;;;;;;34.22;21.35;;;;;;;17.38;84.21;101298.44;4936987;29;20051;-82
2021/07/14 06:51:22;;;;;;;38.90;21.67;;;;;;;17.29;84.09;101297.28;4919726;29;20039;-81
2021/07/14 06:53:48;;;;;;;36.03;21.63;;;;;;;17.25;84.83;101311.84;4936972;29;20046;-79
2021/07/14 06:56:13;;;;;;;33.00;21.70;;;;;;;17.17;84.98;101304.41;4937027;29;20019;-80
2021/07/14 06:58:40;;;;;;;38.80;21.38;;;;;;;17.26;85.05;101309.06;4904051;29;20463;-79
2021/07/14 07:01:06;;;;;;;37.80;21.85;;;;;;;17.07;85.79;101312.19;4936629;29;20055;-82
2021/07/14 07:03:32;;;;;;;36.22;20.52;;;;;;;17.09;85.77;101315.66;4936759;29;20434;-80
2021/07/14 07:05:57;;;;;;;34.60;19.95;;;;;;;16.96;86.02;101312.97;4935522;29;20048;-80
2021/07/14 07:08:23;;;;;;;38.40;20.08;;;;;;;16.85;86.89;101315.59;4936789;29;20035;-81
2021/07/14 07:10:49;;;;;;;35.92;19.48;;;;;;;16.79;86.98;101323.09;4936295;29;20428;-80
2021/07/14 07:13:16;;;;;;;38.83;20.73;;;;;;;16.84;87.09;101329.91;4936579;29;20024;-80
2021/07/14 07:15:43;;;;;;;43.13;20.25;;;;;;;16.76;87.21;101336.66;4936776;29;20102;-80
2021/07/14 07:18:09;;;;;;;39.38;19.65;;;;;;;16.81;87.29;101320.31;4918592;29;20028;-80
2021/07/14 07:20:34;;;;;;;38.05;19.58;;;;;;;16.70;87.71;101323.75;4917614;29;20472;-83
2021/07/14 07:22:59;;;;;;;41.58;19.88;;;;;;;16.63;88.17;101319.81;4917970;29;20032;-82
2021/07/14 07:25:26;;;;;;;40.83;20.05;;;;;;;16.63;88.23;101327.81;4917761;29;20075;-81
2021/07/14 07:27:52;;;;;;;41.88;20.90;;;;;;;16.69;88.24;101319.38;4918053;29;20171;-81
2021/07/14 07:30:18;;;;;;;33.50;18.90;;;;;;;16.69;88.15;101317.53;4917336;29;20379;-81
2021/07/14 07:32:44;;;;;;;34.55;17.83;;;;;;;16.89;87.44;101320.63;4917043;29;20396;-80
2021/07/14 07:35:10;;;;;;;31.45;17.13;;;;;;;16.73;87.96;101314.66;4900195;29;20181;-81
2021/07/14 07:37:36;;;;;;;31.23;17.10;;;;;;;16.76;88.12;101307.28;4917287;29;20040;-80
2021/07/14 07:40:01;;;;;;;30.08;17.20;;;;;;;16.77;87.90;101311.66;4917147;29;20036;-81
2021/07/14 07:42:27;;;;;;;34.25;18.52;;;;;;;16.85;87.79;101320.94;4917124;29;20095;-82
2021/07/14 07:44:52;;;;;;;32.88;16.90;;;;;;;17.01;87.36;101312.66;4917400;29;20036;-81
2021/07/14 07:47:18;;;;;;;27.25;15.70;;;;;;;16.88;87.56;101304.69;4908829;29;20028;-80
2021/07/14 07:49:45;;;;;;;26.85;14.27;;;;;;;16.87;87.34;101302.97;4898369;29;20032;-81
2021/07/14 07:52:12;;;;;;;24.10;14.52;;;;;;;16.94;87.56;101307.75;4898205;29;20108;-83
2021/07/14 07:54:37;;;;;;;24.88;14.75;;;;;;;17.14;87.20;101304.63;4898601;29;20032;-81
2021/07/14 07:57:03;;;;;;;24.42;15.07;;;;;;;17.13;87.00;101311.78;4898951;29;20088;-79
2021/07/14 07:59:29;;;;;;;24.83;13.85;;;;;;;17.08;86.94;101323.78;4898395;29;20032;-81
2021/07/14 08:01:54;;;;;;;24.38;13.68;;;;;;;17.15;86.79;101311.66;4898115;29;20028;-82
2021/07/14 08:04:20;;;;;;;21.00;13.15;;;;;;;16.97;87.07;101324.53;4898364;29;20118;-81
2021/07/14 08:06:45;;;;;;;25.42;13.50;;;;;;;17.10;87.41;101321.84;4898699;29;20076;-80
2021/07/14 08:09:10;;;;;;;22.90;14.07;;;;;;;17.05;87.12;101330.19;4898345;29;20033;-82
2021/07/14 08:11:36;;;;;;;24.48;14.20;;;;;;;17.13;87.02;101322.47;4898035;29;20039;-81
2021/07/14 08:14:02;;;;;;;24.30;14.63;;;;;;;16.97;87.46;101325.41;4897951;29;20039;-81
2021/07/14 08:16:28;;;;;;;30.42;16.50;;;;;;;16.99;87.36;101319.94;4898115;29;20031;-81
2021/07/14 08:18:53;;;;;;;29.60;16.83;;;;;;;17.02;87.23;101323.22;4883748;29;20379;-81
2021/07/14 08:21:18;;;;;;;31.63;17.52;;;;;;;16.95;87.12;101319.31;4916941;29;20032;-81
2021/07/14 08:23:45;;;;;;;29.10;16.98;;;;;;;16.94;87.33;101315.75;4916815;29;20028;-80
2021/07/14 08:26:12;;;;;;;33.70;18.13;;;;;;;17.02;86.82;101323.22;4916670;29;20032;-80
2021/07/14 08:28:46;;;;;;;36.30;18.65;;;;;;;17.19;86.53;101326.53;4916824;29;20380;-81
2021/07/14 08:31:12;;;;;;;32.72;18.27;;;;;;;17.15;86.12;101333.91;4917031;29;20036;-80
2021/07/14 08:33:37;;;;;;;32.47;18.65;;;;;;;17.22;85.67;101328.09;4932707;23;20048;-86
2021/07/14 08:36:05;;;;;;;32.60;17.70;;;;;;;17.18;85.50;101332.81;4901758;29;20044;-87
2021/07/14 08:38:30;;;;;;;30.98;19.17;;;;;;;17.19;85.56;101326.53;4918564;29;20024;-89
2021/07/14 08:40:56;;;;;;;38.22;19.63;;;;;;;17.16;86.01;101332.94;4906374;29;20031;-89
2021/07/14 08:43:27;;;;;;;26.90;17.25;;;;;;;17.21;85.70;101342.44;4866045;29;20036;-89
2021/07/14 08:45:52;;;;;;;37.40;19.45;;;;;;;17.27;85.53;101328.63;4882026;29;20394;-90
2021/07/14 08:48:18;;;;;;;35.58;20.35;;;;;;;17.31;85.52;101336.31;4913104;29;20028;-90
2021/07/14 08:50:44;;;;;;;32.22;18.67;;;;;;;17.38;84.58;101331.38;4868986;29;20048;-90
2021/07/14 08:53:16;;;;;;;36.33;19.08;;;;;;;17.66;83.97;101331.09;4928058;29;20087;-89
2021/07/14 08:55:44;;;;;;;30.30;17.67;;;;;;;17.51;84.25;101333.97;4919596;29;20099;-88
2021/07/14 08:58:12;;;;;;;28.23;17.25;;;;;;;17.41;84.25;101335.63;4920283;29;20064;-88
2021/07/14 09:00:37;;;;;;;26.95;16.45;;;;;;;17.34;84.27;101326.38;4931609;29;20035;-88
2021/07/14 09:03:03;;;;;;;30.73;17.10;;;;;;;17.45;84.07;101328.25;4920982;29;20028;-85
2021/07/14 09:05:28;;;;;;;29.02;17.60;;;;;;;17.56;83.64;101321.09;4921847;29;20546;-89
2021/07/14 09:07:54;;;;;;;32.45;17.60;;;;;;;17.51;83.86;101322.44;4921062;29;20031;-88
2021/07/14 09:10:19;;;;;;;29.90;16.00;;;;;;;17.36;84.34;101319.06;4920232;29;20032;-87
2021/07/14 09:12:45;;;;;;;23.27;14.00;;;;;;;17.35;84.28;101317.38;4920312;29;20031;-87
2021/07/14 09:15:17;;;;;;;26.45;15.35;;;;;;;17.55;83.93;101308.72;4919867;29;20360;-87
2021/07/14 09:17:46;;;;;;;22.80;14.20;;;;;;;17.78;82.55;101315.94;4919491;29;20036;-90
2021/07/14 09:20:41;;;;;;;23.83;15.13;;;;;;;17.74;82.47;101314.47;4887610;29;20487;-87
2021/07/14 09:23:17;;;;;;;23.52;13.57;;;;;;;17.78;81.82;101311.44;4861188;29;20037;-88
2021/07/14 09:25:45;;;;;;;19.80;13.35;;;;;;;17.99;81.16;101309.91;4861593;29;20045;-86
2021/07/14 09:28:12;;;;;;;23.48;13.35;;;;;;;18.11;81.10;101310.78;4861341;29;20049;-87
2021/07/14 09:30:37;;;;;;;19.45;13.20;;;;;;;18.01;81.09;101305.31;4861037;29;20116;-86
2021/07/14 09:33:05;;;;;;;21.70;13.77;;;;;;;18.24;80.71;101308.03;4861047;29;20132;-88
2021/07/14 09:35:41;;;;;;;20.55;12.65;;;;;;;18.22;80.60;101300.13;4831574;29;20062;-88
2021/07/14 09:38:29;;;;;;;23.20;13.27;;;;;;;18.29;80.58;101301.31;4861133;29;20058;-87
2021/07/14 09:40:56;;;;;;;20.15;13.48;;;;;;;18.23;80.26;101306.34;4848652;29;20037;-87
2021/07/14 09:43:24;;;;;;;21.30;13.50;;;;;;;18.25;80.04;101304.38;4861980;29;20154;-88
2021/07/14 09:45:53;;;;;;;18.85;12.40;;;;;;;18.21;80.16;101311.81;4860952;29;20096;-88
2021/07/14 09:48:20;;;;;;;20.92;13.32;;;;;;;18.01;80.93;101310.66;4846427;29;20551;-90
2021/07/14 09:51:03;;;;;;;23.33;13.85;;;;;;;18.58;79.24;101302.66;4862085;29;20069;-89
2021/07/14 09:53:30;;;;;;;20.90;13.38;;;;;;;18.66;79.05;101308.28;4862324;29;20032;-89
2021/07/14 09:55:57;;;;;;;22.58;14.23;;;;;;;18.57;79.38;101309.00;4902564;29;20039;-89
2021/07/14 09:58:27;;;;;;;21.55;14.32;;;;;;;18.66;78.51;101313.63;4919551;29;20111;-89
2021/07/14 10:00:57;;;;;;;19.65;13.07;;;;;;;18.87;77.86;101314.69;4887048;29;20032;-89
2021/07/14 10:03:28;;;;;;;16.42;11.60;;;;;;;18.90;77.14;101307.28;4903159;29;20031;-88
2021/07/14 10:06:08;;;;;;;17.50;11.52;;;;;;;19.02;76.74;101312.59;4919541;29;20064;-88
2021/07/14 10:08:35;;;;;;;15.50;11.23;;;;;;;18.90;76.97;101315.31;4904361;29;20047;-90
2021/07/14 10:11:11;;;;;;;17.20;11.70;;;;;;;19.13;76.63;101322.47;4889398;29;20398;-89
2021/07/14 10:13:37;;;;;;;16.15;10.70;;;;;;;18.96;77.16;101319.31;4874463;29;20092;-89
2021/07/14 10:16:03;;;;;;;19.50;12.25;;;;;;;18.89;77.44;101323.47;4903989;29;20083;-89
2021/07/14 10:18:30;;;;;;;16.23;11.70;;;;;;;19.02;77.14;101317.94;4906192;29;20079;-89
2021/07/14 10:20:56;;;;;;;15.27;10.65;;;;;;;18.92;77.32;101318.69;4940361;29;20047;-89
2021/07/14 10:23:21;;;;;;;17.77;11.65;;;;;;;18.99;76.78;101319.06;4908065;29;20104;-90
2021/07/14 10:25:48;;;;;;;14.98;11.82;;;;;;;18.87;77.43;101322.75;4941918;29;20052;-89
2021/07/14 10:28:16;;;;;;;14.70;10.88;;;;;;;19.10;76.85;101318.22;4919996;29;20028;-88
2021/07/14 10:30:42;;;;;;;13.48;10.40;;;;;;;19.12;76.46;101323.44;4880349;29;20068;-90
2021/07/14 10:33:11;;;;;;;14.20;10.10;;;;;;;18.88;77.21;101319.94;4890543;29;20029;-90
2021/07/14 10:35:41;;;;;;;17.08;9.70;;;;;;;18.95;76.72;101319.44;4878336;29;20056;-89
2021/07/14 10:38:16;;;;;;;12.90;9.52;;;;;;;19.17;75.91;101321.25;4903313;29;20044;-89
2021/07/14 10:40:49;;;;;;;13.60;10.13;;;;;;;19.35;75.69;101318.84;4902598;29;20032;-90
2021/07/14 10:43:18;;;;;;;14.10;10.68;;;;;;;19.58;74.86;101318.75;4888330;29;20079;-90
2021/07/14 10:45:48;;;;;;;14.95;10.25;;;;;;;19.47;74.94;101318.81;4902371;29;20051;-90
2021/07/14 10:48:17;;;;;;;13.93;10.23;;;;;;;19.64;74.68;101323.59;4901692;29;20078;-90
2021/07/14 10:50:44;;;;;;;12.55;9.23;;;;;;;19.44;74.96;101327.97;4886734;29;20493;-89
2021/07/14 10:53:10;;;;;;;14.82;9.23;;;;;;;19.53;74.90;101331.72;4901962;29;20119;-88
2021/07/14 10:55:36;;;;;;;12.90;9.18;;;;;;;19.77;74.16;101319.88;4901853;29;20423;-90
2021/07/14 10:58:01;;;;;;;10.82;7.70;;;;;;;19.74;74.16;101325.50;4886034;29;20032;-89
2021/07/14 11:00:27;;;;;;;11.63;8.15;;;;;;;20.09;72.63;101318.13;4886882;29;20035;-90
2021/07/14 11:02:56;;;;;;;10.90;7.82;;;;;;;20.02;72.83;101318.66;4901655;29;20032;-89
2021/07/14 11:05:44;;;;;;;11.50;8.38;;;;;;;20.30;72.21;101320.81;4887363;29;20040;-89
2021/07/14 11:08:10;;;;;;;11.25;7.55;;;;;;;20.43;71.55;101325.94;4918809;29;20028;-88
2021/07/14 11:10:37;;;;;;;10.73;7.97;;;;;;;20.32;72.08;101323.34;4918531;29;20060;-90
2021/07/14 11:13:25;;;;;;;9.27;7.50;;;;;;;20.58;71.18;101320.19;4885342;29;20032;-86
2021/07/14 11:15:50;;;;;;;10.15;7.70;;;;;;;20.93;69.87;101313.53;4917440;29;20024;-86
2021/07/14 11:18:35;;;;;;;13.02;8.63;;;;;;;20.59;71.28;101317.38;4900289;29;20071;-86
2021/07/14 11:21:01;;;;;;;11.25;8.40;;;;;;;20.90;70.51;101309.25;4917452;29;20554;-86